Details From KLHX - LA JUNTA MUNI
To KFSI - HENRY POST AAF
Flight Number -
Tags generated
Created
Modified
Stats Distance 327 nm / 606 km
Max Altitude 35,000 ft / 10,668 m
Waypoints 5
Social Downloads 2
Likes 0
Share VATSIM

Download

Looking for another format? Having issues loading an existing format? Contact us
Advertisement - Login to hide

Notes

Basic altitude profile: - Ascent Rate: 2500ft/min - Ascent Speed: 250kts - Cruise Altitude: 21000ft - Cruise Speed: 420kts - Descent Rate: 1500ft/min - Descent Speed: 250kts Options: - Use NATs: yes - Use PACOTS: yes - Use low airways: yes - Use high airways: yes

Route

KLHX DRAWL J20 ROLLS KFSI

ID Type Via Altitude Latitude Longitude Leg Dist Tot Dist Heading (true) Name
O KLHX APT - 0 ft / 0 m 38.04986˚ -103.50925˚ - 0 nm - LA JUNTA MUNI
DRAWL FIX - 33,200 ft / 10,119 m 37.48541˚ -101.61725˚ 96 nm 96 nm 110° / 111° -
LBL VOR J20 (AWY-HI) 35,000 ft / 10,668 m 37.04439˚ -100.97119˚ 40 nm 136 nm 130° / 131° LIBERAL VORTAC
ROLLS FIX J20 (AWY-HI) 17,000 ft / 5,182 m 35.72274˚ -99.47070˚ 107 nm 244 nm 137° / 138° -
O KFSI APT - 0 ft / 0 m 34.64982˚ -98.40217˚ 83 nm 327 nm 141° / 141° HENRY POST AAF

Altitude Profile

Advertisement - Login to hide

Weather


0- 5 10 15 20 25 30 35+ Temperature / ° C

Clouds and Precipitation
Forecast for 2017-12-17 06:00 UTC. Updated 2 hours ago

Ground ~20,000 ft ~40,000 ft Winds

KLHX

Details ICAO KLHX (LHX)
Name LA JUNTA MUNI
Region United States
Timezone America/Denver (UTC-7.0)
Stats Elevation 4,238 ft / 1,292 m (AMSL)
Location 38.049862° -103.509245°
Runways 2
Magnetic Variation 7.303° E

METAR

KLHX 170353Z AUTO 01014G22KT CLR 02/M06 A2983 RMK AO2 SLP099 T00171061 TSNO $

Decode

TAF

Not found

Departure Runways

ID Width Length Bearing (true) Bearing (mag) Surface Threshold Offset Overrun Length
08 75 ft / 23 m 6,834 ft / 2,083 m 89.80° 82.50° Asphalt 0 ft / 0 m 0 ft / 0 m
12 60 ft / 18 m 5,800 ft / 1,768 m 135.34° 128.04° Asphalt 0 ft / 0 m 0 ft / 0 m
26 75 ft / 23 m 6,834 ft / 2,083 m 269.81° 262.51° Asphalt 0 ft / 0 m 0 ft / 0 m
30 60 ft / 18 m 5,800 ft / 1,768 m 315.35° 308.05° Asphalt 0 ft / 0 m 0 ft / 0 m

KFSI

Details ICAO KFSI (FSI)
Name HENRY POST AAF
Region United States
Timezone America/Chicago (UTC-6.0)
Stats Elevation 1,188 ft / 362 m (AMSL)
Location 34.649821° -98.402175°
Runways 1
Magnetic Variation 4.259° E

METAR

KFSI 170356Z AUTO 18014G19KT 10SM OVC011 07/06 A2996 RMK AO2 SLP148 T00710059

Decode

TAF

Not found

Destination Runways

ID Width Length Bearing (true) Bearing (mag) Surface Threshold Offset Overrun Length
17 150 ft / 46 m 5,015 ft / 1,528 m 180.13° 175.87° Concrete 0 ft / 0 m 0 ft / 0 m
35 150 ft / 46 m 5,015 ft / 1,528 m 0.13° 355.87° Concrete 0 ft / 0 m 0 ft / 0 m